Terminal Aerodrome Forecast
Issued by NWS New Orleans/Baton Rouge, LA

Home | Current Version | Previous Version | Text Only | Print | Product List | Glossary On
Versions: 1 2 3 4 5 6 7 8 9 10 11 12 13
000
FTUS44 KLIX 051142
TAFBTR
TAF
KBTR 051142Z 0512/0612 VRB04KT P6SM SKC
     FM051500 24006KT P6SM SCT035
     FM051900 23007KT P6SM VCTS SCT040CB
     FM060100 21004KT P6SM SCT100 BKN250=

USA.gov is the U.S. government's official web portal to all federal, state and local government web resources and services.